ANA430 RJFF-RJOO
Flight info
| Callsign | ANA430 |
|---|---|
| Flight time | 1h 28m |
| Altitude | 35000 |
| Route | IPRIR Y231 MIRIO Y401 KAINA Y753 IZUMI |
| Aircraft | B738/M-SDE2E3FGHIRWXY/LB1 |
Departure
| Time | 2026-04-27 14:28 |
|---|---|
| Airport | Fukuoka Airport (RJFF) |
Arrival
| Time | 2026-04-27 15:57 |
|---|---|
| Airport | Osaka Itami International Airport (RJOO) |
| Time | Latitude | Longitude | Altitude | Speed | Heading |
|---|---|---|---|---|---|
| 2026-04-27 14:07 | 33.59526 | 130.44872 | 22 ft | 0 kts | 61° |
| 2026-04-27 14:18 | 33.59522 | 130.44863 | 25 ft | 3 kts | 59° |
| 2026-04-27 14:19 | 33.59511 | 130.44843 | 26 ft | 3 kts | 51° |
| 2026-04-27 14:19 | 33.59498 | 130.44825 | 25 ft | 3 kts | 41° |
| 2026-04-27 14:19 | 33.59483 | 130.44811 | 26 ft | 2 kts | 28° |
| 2026-04-27 14:19 | 33.59479 | 130.44809 | 26 ft | 0 kts | 27° |
| 2026-04-27 14:21 | 33.59464 | 130.44797 | 24 ft | 0 kts | 336° |
| 2026-04-27 14:21 | 33.59479 | 130.44789 | 27 ft | 0 kts | 330° |
| 2026-04-27 14:24 | 33.59479 | 130.44788 | 24 ft | 0 kts | 330° |
| 2026-04-27 14:25 | 33.59491 | 130.44779 | 27 ft | 4 kts | 330° |
| 2026-04-27 14:25 | 33.59529 | 130.44755 | 26 ft | 8 kts | 329° |
| 2026-04-27 14:25 | 33.59594 | 130.44712 | 28 ft | 13 kts | 331° |
| 2026-04-27 14:25 | 33.59687 | 130.44650 | 25 ft | 8 kts | 330° |
| 2026-04-27 14:26 | 33.59752 | 130.44606 | 28 ft | 13 kts | 327° |
| 2026-04-27 14:26 | 33.59764 | 130.44504 | 29 ft | 14 kts | 245° |
| 2026-04-27 14:26 | 33.59713 | 130.44390 | 29 ft | 11 kts | 240° |
| 2026-04-27 14:26 | 33.59639 | 130.44359 | 27 ft | 13 kts | 146° |
| 2026-04-27 14:27 | 33.59618 | 130.44373 | 26 ft | 0 kts | 150° |
| 2026-04-27 14:28 | 33.59584 | 130.44395 | 25 ft | 32 kts | 150° |
| 2026-04-27 14:28 | 33.59122 | 130.44712 | 27 ft | 115 kts | 150° |
| 2026-04-27 14:28 | 33.58240 | 130.45315 | 149 ft | 167 kts | 151° |
| 2026-04-27 14:28 | 33.57163 | 130.45992 | 848 ft | 181 kts | 152° |
| 2026-04-27 14:29 | 33.56042 | 130.46740 | 1765 ft | 186 kts | 151° |
| 2026-04-27 14:29 | 33.54970 | 130.47500 | 2731 ft | 176 kts | 151° |
| 2026-04-27 14:29 | 33.53904 | 130.48252 | 3309 ft | 186 kts | 156° |
| 2026-04-27 14:29 | 33.52675 | 130.48994 | 3579 ft | 205 kts | 157° |
| 2026-04-27 14:30 | 33.51811 | 130.49507 | 3816 ft | 211 kts | 157° |
| 2026-04-27 14:30 | 33.50031 | 130.50573 | 4411 ft | 218 kts | 157° |
| 2026-04-27 14:30 | 33.49111 | 130.51129 | 4733 ft | 220 kts | 157° |
| 2026-04-27 14:30 | 33.45346 | 130.53426 | 5925 ft | 232 kts | 156° |
| 2026-04-27 14:31 | 33.39421 | 130.57081 | 7839 ft | 242 kts | 157° |
| 2026-04-27 14:31 | 33.33331 | 130.60848 | 9913 ft | 250 kts | 158° |
| 2026-04-27 14:31 | 33.28640 | 130.63748 | 11392 ft | 257 kts | 156° |
| 2026-04-27 14:31 | 33.27310 | 130.65218 | 11856 ft | 271 kts | 123° |
| 2026-04-27 14:32 | 33.26813 | 130.67409 | 12307 ft | 280 kts | 86° |
| 2026-04-27 14:32 | 33.27571 | 130.71012 | 13164 ft | 286 kts | 71° |
| 2026-04-27 14:32 | 33.29085 | 130.76845 | 14825 ft | 295 kts | 71° |
| 2026-04-27 14:32 | 33.29785 | 130.79623 | 15682 ft | 295 kts | 71° |
| 2026-04-27 14:33 | 33.30646 | 130.83096 | 16557 ft | 304 kts | 71° |
| 2026-04-27 14:33 | 33.31796 | 130.87785 | 17806 ft | 310 kts | 70° |
| 2026-04-27 14:33 | 33.33009 | 130.92743 | 18976 ft | 318 kts | 71° |
| 2026-04-27 14:33 | 33.34269 | 130.97901 | 20012 ft | 328 kts | 71° |
| 2026-04-27 14:34 | 33.35254 | 131.01943 | 20825 ft | 336 kts | 71° |
| 2026-04-27 14:34 | 33.36490 | 131.07035 | 21824 ft | 344 kts | 71° |
| 2026-04-27 14:34 | 33.37836 | 131.12596 | 22821 ft | 353 kts | 72° |
| 2026-04-27 14:34 | 33.38789 | 131.16682 | 23515 ft | 361 kts | 76° |
| 2026-04-27 14:35 | 33.39712 | 131.22673 | 24411 ft | 368 kts | 80° |
| 2026-04-27 14:35 | 33.40555 | 131.28782 | 25274 ft | 374 kts | 79° |
| 2026-04-27 14:35 | 33.41438 | 131.34922 | 26109 ft | 381 kts | 78° |
| 2026-04-27 14:35 | 33.42366 | 131.41215 | 26985 ft | 386 kts | 78° |
| 2026-04-27 14:36 | 33.43315 | 131.47620 | 27775 ft | 394 kts | 78° |
| 2026-04-27 14:36 | 33.44280 | 131.54148 | 28590 ft | 400 kts | 78° |
| 2026-04-27 14:36 | 33.45239 | 131.60668 | 29376 ft | 405 kts | 78° |
| 2026-04-27 14:36 | 33.46223 | 131.67379 | 30053 ft | 414 kts | 78° |
| 2026-04-27 14:37 | 33.47056 | 131.73087 | 30543 ft | 420 kts | 78° |
| 2026-04-27 14:37 | 33.47973 | 131.79411 | 31104 ft | 427 kts | 77° |
| 2026-04-27 14:37 | 33.48995 | 131.86506 | 31628 ft | 435 kts | 77° |
| 2026-04-27 14:37 | 33.50023 | 131.93684 | 32271 ft | 439 kts | 77° |
| 2026-04-27 14:38 | 33.51061 | 132.00961 | 32828 ft | 445 kts | 77° |
| 2026-04-27 14:38 | 33.52110 | 132.08337 | 33399 ft | 451 kts | 76° |
| 2026-04-27 14:38 | 33.52730 | 132.12714 | 33735 ft | 454 kts | 76° |
| 2026-04-27 14:38 | 33.53253 | 132.16418 | 33963 ft | 458 kts | 76° |
| 2026-04-27 14:39 | 33.53785 | 132.20193 | 34165 ft | 462 kts | 76° |
| 2026-04-27 14:39 | 33.54321 | 132.24004 | 34410 ft | 464 kts | 76° |
| 2026-04-27 14:39 | 33.54857 | 132.27824 | 34673 ft | 465 kts | 76° |
| 2026-04-27 14:39 | 33.55393 | 132.31652 | 34916 ft | 466 kts | 76° |
| 2026-04-27 14:40 | 33.55938 | 132.35519 | 34995 ft | 473 kts | 76° |
| 2026-04-27 14:40 | 33.57053 | 132.43383 | 34995 ft | 487 kts | 76° |
| 2026-04-27 14:41 | 33.58201 | 132.51531 | 35014 ft | 503 kts | 76° |
| 2026-04-27 14:41 | 33.59376 | 132.59939 | 35000 ft | 517 kts | 76° |
| 2026-04-27 14:42 | 33.60564 | 132.68508 | 34998 ft | 530 kts | 77° |
| 2026-04-27 14:42 | 33.61984 | 132.78791 | 35019 ft | 543 kts | 77° |
| 2026-04-27 14:43 | 33.63324 | 132.88605 | 34978 ft | 519 kts | 77° |
| 2026-04-27 14:43 | 33.64389 | 132.96399 | 34447 ft | 508 kts | 77° |
| 2026-04-27 14:43 | 33.65328 | 133.03357 | 33713 ft | 504 kts | 77° |
| 2026-04-27 14:43 | 33.66404 | 133.11533 | 32935 ft | 499 kts | 77° |
| 2026-04-27 14:44 | 33.82071 | 134.22771 | 23718 ft | 412 kts | 78° |
| 2026-04-27 14:44 | 33.94984 | 135.26163 | 13629 ft | 319 kts | 83° |
| 2026-04-27 14:44 | 33.99346 | 135.74139 | 8240 ft | 277 kts | 82° |
| 2026-04-27 14:44 | 34.11609 | 136.38476 | 4 ft | 0 kts | 66° |
| 2026-04-27 14:45 | 34.11613 | 136.38475 | 4 ft | 0 kts | 66° |
| 2026-04-27 14:45 | 33.59526 | 130.44872 | 4 ft | 0 kts | 61° |
| 2026-04-27 14:57 | 33.59525 | 130.44870 | 22 ft | 1 kts | 61° |
| 2026-04-27 14:57 | 33.59516 | 130.44851 | 24 ft | 3 kts | 51° |
| 2026-04-27 14:57 | 33.59503 | 130.44836 | 27 ft | 3 kts | 16° |
| 2026-04-27 14:58 | 33.59489 | 130.44836 | 26 ft | 2 kts | 331° |
| 2026-04-27 14:58 | 33.59473 | 130.44847 | 26 ft | 3 kts | 331° |
| 2026-04-27 14:58 | 33.59461 | 130.44855 | 26 ft | 1 kts | 330° |
| 2026-04-27 14:58 | 33.59460 | 130.44856 | 26 ft | 0 kts | 330° |
| 2026-04-27 15:00 | 33.59463 | 130.44800 | 25 ft | 0 kts | 330° |
| 2026-04-27 15:00 | 33.59464 | 130.44800 | 25 ft | 1 kts | 330° |
| 2026-04-27 15:00 | 33.59479 | 130.44789 | 25 ft | 5 kts | 329° |
| 2026-04-27 15:01 | 33.59522 | 130.44758 | 28 ft | 9 kts | 329° |
| 2026-04-27 15:01 | 33.59593 | 130.44712 | 29 ft | 14 kts | 333° |
| 2026-04-27 15:01 | 33.59694 | 130.44645 | 26 ft | 19 kts | 331° |
| 2026-04-27 15:01 | 33.59777 | 130.44579 | 25 ft | 13 kts | 303° |
| 2026-04-27 15:02 | 33.59772 | 130.44520 | 30 ft | 9 kts | 246° |
| 2026-04-27 15:02 | 33.59738 | 130.44444 | 26 ft | 12 kts | 240° |
| 2026-04-27 15:02 | 33.59676 | 130.44353 | 28 ft | 16 kts | 204° |
| 2026-04-27 15:02 | 33.59608 | 130.44379 | 28 ft | 0 kts | 150° |
| 2026-04-27 15:04 | 33.59606 | 130.44380 | 28 ft | 2 kts | 150° |
| 2026-04-27 15:04 | 33.59490 | 130.44460 | 27 ft | 50 kts | 150° |
| 2026-04-27 15:04 | 33.58988 | 130.44803 | 27 ft | 114 kts | 150° |
| 2026-04-27 15:05 | 33.58143 | 130.45382 | 76 ft | 161 kts | 150° |
| 2026-04-27 15:05 | 33.57128 | 130.46032 | 636 ft | 169 kts | 152° |
| 2026-04-27 15:05 | 33.56065 | 130.46704 | 1203 ft | 180 kts | 152° |
| 2026-04-27 15:05 | 33.54929 | 130.47436 | 1845 ft | 189 kts | 153° |
| 2026-04-27 15:06 | 33.53755 | 130.48175 | 2478 ft | 195 kts | 155° |
| 2026-04-27 15:06 | 33.52502 | 130.48957 | 2718 ft | 209 kts | 155° |
| 2026-04-27 15:06 | 33.51189 | 130.49774 | 3114 ft | 215 kts | 156° |
| 2026-04-27 15:06 | 33.49846 | 130.50612 | 3625 ft | 219 kts | 156° |
| 2026-04-27 15:07 | 33.48488 | 130.51457 | 4187 ft | 220 kts | 156° |
| 2026-04-27 15:07 | 33.47113 | 130.52311 | 4699 ft | 225 kts | 157° |
| 2026-04-27 15:07 | 33.45722 | 130.53172 | 5161 ft | 230 kts | 156° |
| 2026-04-27 15:07 | 33.44284 | 130.54065 | 5609 ft | 235 kts | 156° |
| 2026-04-27 15:08 | 33.42814 | 130.54977 | 6109 ft | 239 kts | 156° |
| 2026-04-27 15:08 | 33.41325 | 130.55900 | 6587 ft | 243 kts | 156° |
| 2026-04-27 15:08 | 33.39828 | 130.56828 | 7090 ft | 246 kts | 156° |
| 2026-04-27 15:08 | 33.38305 | 130.57772 | 7647 ft | 247 kts | 156° |
| 2026-04-27 15:09 | 33.36773 | 130.58720 | 8175 ft | 249 kts | 157° |
| 2026-04-27 15:09 | 33.35216 | 130.59683 | 8715 ft | 252 kts | 157° |
| 2026-04-27 15:09 | 33.33664 | 130.60642 | 9259 ft | 254 kts | 157° |
| 2026-04-27 15:09 | 33.32078 | 130.61622 | 9814 ft | 257 kts | 158° |
| 2026-04-27 15:10 | 33.30478 | 130.62609 | 10353 ft | 259 kts | 158° |
| 2026-04-27 15:10 | 33.28871 | 130.63602 | 10906 ft | 260 kts | 157° |
| 2026-04-27 15:10 | 33.27453 | 130.64993 | 11387 ft | 273 kts | 126° |
| 2026-04-27 15:10 | 33.26837 | 130.67134 | 11838 ft | 281 kts | 90° |
| 2026-04-27 15:11 | 33.27176 | 130.69438 | 12328 ft | 282 kts | 71° |
| 2026-04-27 15:11 | 33.27759 | 130.71692 | 12848 ft | 286 kts | 70° |
| 2026-04-27 15:11 | 33.28361 | 130.73979 | 13380 ft | 290 kts | 71° |
| 2026-04-27 15:11 | 33.28957 | 130.76295 | 13938 ft | 293 kts | 71° |
| 2026-04-27 15:12 | 33.29549 | 130.78653 | 14402 ft | 298 kts | 71° |
| 2026-04-27 15:12 | 33.30132 | 130.81008 | 14882 ft | 301 kts | 71° |
| 2026-04-27 15:12 | 33.30726 | 130.83422 | 15402 ft | 303 kts | 71° |
| 2026-04-27 15:12 | 33.31321 | 130.85850 | 15940 ft | 305 kts | 71° |
| 2026-04-27 15:13 | 33.31925 | 130.88317 | 16423 ft | 309 kts | 71° |
| 2026-04-27 15:13 | 33.32525 | 130.90768 | 16917 ft | 312 kts | 71° |
| 2026-04-27 15:13 | 33.33138 | 130.93274 | 17417 ft | 315 kts | 71° |
| 2026-04-27 15:13 | 33.33756 | 130.95803 | 17912 ft | 318 kts | 71° |
| 2026-04-27 15:14 | 33.34380 | 130.98359 | 18385 ft | 322 kts | 71° |
| 2026-04-27 15:14 | 33.35010 | 131.00942 | 18799 ft | 326 kts | 71° |
| 2026-04-27 15:14 | 33.35649 | 131.03569 | 19208 ft | 330 kts | 71° |
| 2026-04-27 15:14 | 33.36285 | 131.06191 | 19610 ft | 334 kts | 71° |
| 2026-04-27 15:15 | 33.36937 | 131.08884 | 19996 ft | 339 kts | 71° |
| 2026-04-27 15:15 | 33.37597 | 131.11608 | 20399 ft | 343 kts | 71° |
| 2026-04-27 15:15 | 33.38264 | 131.14366 | 20811 ft | 346 kts | 71° |
| 2026-04-27 15:15 | 33.38880 | 131.17178 | 21229 ft | 350 kts | 76° |
| 2026-04-27 15:16 | 33.39340 | 131.20058 | 21654 ft | 354 kts | 79° |
| 2026-04-27 15:16 | 33.39745 | 131.22951 | 22031 ft | 359 kts | 79° |
| 2026-04-27 15:16 | 33.40154 | 131.25925 | 22399 ft | 363 kts | 79° |
| 2026-04-27 15:16 | 33.40573 | 131.28930 | 22748 ft | 368 kts | 79° |
| 2026-04-27 15:17 | 33.41007 | 131.31967 | 23138 ft | 372 kts | 79° |
| 2026-04-27 15:17 | 33.41450 | 131.35004 | 23515 ft | 375 kts | 79° |
| 2026-04-27 15:17 | 33.41905 | 131.38098 | 23853 ft | 378 kts | 79° |
| 2026-04-27 15:17 | 33.42365 | 131.41209 | 24208 ft | 380 kts | 79° |
| 2026-04-27 15:18 | 33.42826 | 131.44319 | 24537 ft | 384 kts | 79° |
| 2026-04-27 15:18 | 33.43294 | 131.47483 | 24848 ft | 387 kts | 79° |
| 2026-04-27 15:18 | 33.43766 | 131.50668 | 25170 ft | 390 kts | 79° |
| 2026-04-27 15:18 | 33.44240 | 131.53883 | 25478 ft | 393 kts | 79° |
| 2026-04-27 15:19 | 33.44718 | 131.57130 | 25786 ft | 396 kts | 79° |
| 2026-04-27 15:19 | 33.45200 | 131.60404 | 26113 ft | 399 kts | 79° |
| 2026-04-27 15:19 | 33.45674 | 131.63638 | 26434 ft | 401 kts | 79° |
| 2026-04-27 15:19 | 33.46158 | 131.66945 | 26760 ft | 404 kts | 79° |
| 2026-04-27 15:20 | 33.46645 | 131.70269 | 27065 ft | 406 kts | 79° |
| 2026-04-27 15:20 | 33.47133 | 131.73618 | 27372 ft | 409 kts | 79° |
| 2026-04-27 15:20 | 33.47626 | 131.77013 | 27567 ft | 416 kts | 79° |
| 2026-04-27 15:20 | 33.48126 | 131.80474 | 27641 ft | 427 kts | 79° |
| 2026-04-27 15:21 | 33.48638 | 131.84029 | 27745 ft | 436 kts | 79° |
| 2026-04-27 15:21 | 33.49152 | 131.87605 | 27841 ft | 446 kts | 79° |
| 2026-04-27 15:21 | 33.49683 | 131.91307 | 27935 ft | 455 kts | 79° |
| 2026-04-27 15:21 | 33.50225 | 131.95092 | 28029 ft | 465 kts | 79° |
| 2026-04-27 15:22 | 33.51337 | 132.02893 | 28205 ft | 483 kts | 79° |
| 2026-04-27 15:22 | 33.52485 | 132.10981 | 28369 ft | 500 kts | 79° |
| 2026-04-27 15:23 | 33.53661 | 132.19310 | 28515 ft | 517 kts | 79° |
| 2026-04-27 15:23 | 33.54869 | 132.27906 | 28651 ft | 531 kts | 79° |
| 2026-04-27 15:24 | 33.56112 | 132.36757 | 28762 ft | 545 kts | 79° |
| 2026-04-27 15:24 | 33.57393 | 132.45832 | 28872 ft | 556 kts | 79° |
| 2026-04-27 15:25 | 33.58032 | 132.50375 | 28999 ft | 561 kts | 79° |
| 2026-04-27 15:25 | 33.58683 | 132.55013 | 29067 ft | 565 kts | 79° |
| 2026-04-27 15:25 | 33.59334 | 132.59682 | 29278 ft | 566 kts | 79° |
| 2026-04-27 15:25 | 33.59983 | 132.64347 | 29598 ft | 565 kts | 79° |
| 2026-04-27 15:26 | 33.60618 | 132.68931 | 29983 ft | 562 kts | 79° |
| 2026-04-27 15:26 | 33.61258 | 132.73558 | 30303 ft | 561 kts | 79° |
| 2026-04-27 15:26 | 33.61894 | 132.78175 | 30628 ft | 560 kts | 79° |
| 2026-04-27 15:26 | 33.62530 | 132.82796 | 30879 ft | 561 kts | 78° |
| 2026-04-27 15:27 | 33.63166 | 132.87431 | 31030 ft | 563 kts | 78° |
| 2026-04-27 15:27 | 33.63803 | 132.92083 | 31191 ft | 565 kts | 78° |
| 2026-04-27 15:27 | 33.64438 | 132.96736 | 31459 ft | 564 kts | 78° |
| 2026-04-27 15:27 | 33.65064 | 133.01376 | 31774 ft | 561 kts | 78° |
| 2026-04-27 15:28 | 33.65678 | 133.06001 | 32047 ft | 561 kts | 78° |
| 2026-04-27 15:28 | 33.66281 | 133.10575 | 32274 ft | 561 kts | 78° |
| 2026-04-27 15:28 | 33.66888 | 133.15203 | 32543 ft | 561 kts | 78° |
| 2026-04-27 15:28 | 33.67495 | 133.19837 | 32892 ft | 560 kts | 78° |
| 2026-04-27 15:29 | 33.68099 | 133.24455 | 33076 ft | 560 kts | 78° |
| 2026-04-27 15:29 | 33.68704 | 133.29082 | 33361 ft | 559 kts | 78° |
| 2026-04-27 15:29 | 33.69305 | 133.33695 | 33670 ft | 557 kts | 78° |
| 2026-04-27 15:29 | 33.69896 | 133.38239 | 33895 ft | 557 kts | 78° |
| 2026-04-27 15:30 | 33.70494 | 133.42848 | 34045 ft | 558 kts | 78° |
| 2026-04-27 15:30 | 33.71088 | 133.47445 | 34308 ft | 554 kts | 78° |
| 2026-04-27 15:30 | 33.71679 | 133.52029 | 34670 ft | 551 kts | 78° |
| 2026-04-27 15:30 | 33.72266 | 133.56546 | 34726 ft | 555 kts | 78° |
| 2026-04-27 15:31 | 33.73468 | 133.65769 | 34872 ft | 553 kts | 78° |
| 2026-04-27 15:31 | 33.74633 | 133.74797 | 34970 ft | 549 kts | 78° |
| 2026-04-27 15:32 | 33.75788 | 133.83796 | 34507 ft | 538 kts | 78° |
| 2026-04-27 15:32 | 33.76353 | 133.88230 | 33579 ft | 539 kts | 78° |
| 2026-04-27 15:32 | 33.76927 | 133.92720 | 32305 ft | 547 kts | 78° |
| 2026-04-27 15:33 | 33.77500 | 133.97231 | 31719 ft | 538 kts | 79° |
| 2026-04-27 15:33 | 33.78050 | 134.01599 | 31626 ft | 519 kts | 78° |
| 2026-04-27 15:33 | 33.78573 | 134.05765 | 31505 ft | 502 kts | 78° |
| 2026-04-27 15:33 | 33.78974 | 134.08954 | 27768 ft | 0 kts | 78° |
| 2026-04-27 15:34 | 33.79503 | 134.12323 | 24156 ft | 466 kts | 80° |
| 2026-04-27 15:34 | 33.79958 | 134.16146 | 23820 ft | 454 kts | 82° |
| 2026-04-27 15:34 | 33.80373 | 134.19872 | 23422 ft | 444 kts | 81° |
| 2026-04-27 15:34 | 33.80897 | 134.23481 | 22985 ft | 432 kts | 73° |
| 2026-04-27 15:35 | 33.81841 | 134.26805 | 22742 ft | 419 kts | 61° |
| 2026-04-27 15:35 | 33.83131 | 134.29926 | 22400 ft | 414 kts | 58° |
| 2026-04-27 15:35 | 33.84448 | 134.33003 | 22069 ft | 411 kts | 59° |
| 2026-04-27 15:35 | 33.85754 | 134.36074 | 21723 ft | 410 kts | 59° |
| 2026-04-27 15:36 | 33.87023 | 134.39096 | 21328 ft | 408 kts | 59° |
| 2026-04-27 15:36 | 33.88294 | 134.42153 | 20984 ft | 406 kts | 60° |
| 2026-04-27 15:36 | 33.89554 | 134.45203 | 20641 ft | 405 kts | 60° |
| 2026-04-27 15:36 | 33.90806 | 134.48240 | 20268 ft | 403 kts | 60° |
| 2026-04-27 15:37 | 33.92050 | 134.51259 | 19910 ft | 402 kts | 60° |
| 2026-04-27 15:37 | 33.93281 | 134.54230 | 19650 ft | 399 kts | 60° |
| 2026-04-27 15:37 | 33.94524 | 134.57218 | 19304 ft | 398 kts | 59° |
| 2026-04-27 15:37 | 33.95768 | 134.60208 | 18955 ft | 397 kts | 60° |
| 2026-04-27 15:38 | 33.97004 | 134.63181 | 18596 ft | 396 kts | 60° |
| 2026-04-27 15:38 | 33.98236 | 134.66153 | 18226 ft | 396 kts | 60° |
| 2026-04-27 15:38 | 33.99451 | 134.69085 | 17830 ft | 395 kts | 60° |
| 2026-04-27 15:38 | 34.00665 | 134.72026 | 17465 ft | 387 kts | 60° |
| 2026-04-27 15:39 | 34.01834 | 134.74892 | 17172 ft | 376 kts | 60° |
| 2026-04-27 15:39 | 34.02975 | 134.77701 | 16826 ft | 368 kts | 61° |
| 2026-04-27 15:39 | 34.04094 | 134.80459 | 16517 ft | 365 kts | 61° |
| 2026-04-27 15:39 | 34.05209 | 134.83206 | 16198 ft | 363 kts | 61° |
| 2026-04-27 15:40 | 34.06319 | 134.85938 | 15888 ft | 362 kts | 61° |
| 2026-04-27 15:40 | 34.07407 | 134.88619 | 15549 ft | 362 kts | 61° |
| 2026-04-27 15:40 | 34.08517 | 134.91358 | 15216 ft | 361 kts | 61° |
| 2026-04-27 15:40 | 34.09627 | 134.94097 | 14877 ft | 360 kts | 61° |
| 2026-04-27 15:41 | 34.10712 | 134.96777 | 14555 ft | 359 kts | 61° |
| 2026-04-27 15:41 | 34.11807 | 134.99485 | 14218 ft | 359 kts | 61° |
| 2026-04-27 15:41 | 34.12904 | 135.02200 | 13892 ft | 358 kts | 61° |
| 2026-04-27 15:41 | 34.13998 | 135.04910 | 13536 ft | 357 kts | 61° |
| 2026-04-27 15:42 | 34.15072 | 135.07571 | 13188 ft | 355 kts | 62° |
| 2026-04-27 15:42 | 34.16149 | 135.10244 | 12844 ft | 353 kts | 62° |
| 2026-04-27 15:42 | 34.17223 | 135.12911 | 12519 ft | 351 kts | 62° |
| 2026-04-27 15:42 | 34.18288 | 135.15556 | 12198 ft | 348 kts | 62° |
| 2026-04-27 15:43 | 34.19342 | 135.18178 | 11876 ft | 345 kts | 62° |
| 2026-04-27 15:43 | 34.20389 | 135.20782 | 11568 ft | 343 kts | 62° |
| 2026-04-27 15:43 | 34.21451 | 135.23318 | 11253 ft | 339 kts | 56° |
| 2026-04-27 15:43 | 34.23017 | 135.25394 | 11010 ft | 327 kts | 33° |
| 2026-04-27 15:44 | 34.24851 | 135.26918 | 10751 ft | 323 kts | 30° |
| 2026-04-27 15:44 | 34.26727 | 135.28407 | 10448 ft | 321 kts | 30° |
| 2026-04-27 15:44 | 34.28598 | 135.29891 | 10147 ft | 318 kts | 30° |
| 2026-04-27 15:44 | 34.30405 | 135.31339 | 9985 ft | 304 kts | 31° |
| 2026-04-27 15:45 | 34.32113 | 135.32719 | 9840 ft | 291 kts | 31° |
| 2026-04-27 15:45 | 34.33803 | 135.34090 | 9418 ft | 289 kts | 31° |
| 2026-04-27 15:45 | 34.35447 | 135.35428 | 9119 ft | 281 kts | 31° |
| 2026-04-27 15:45 | 34.37056 | 135.36740 | 8832 ft | 274 kts | 31° |
| 2026-04-27 15:46 | 34.38599 | 135.38001 | 8563 ft | 267 kts | 31° |
| 2026-04-27 15:46 | 34.40121 | 135.39244 | 8313 ft | 261 kts | 31° |
| 2026-04-27 15:46 | 34.41138 | 135.40075 | 8153 ft | 262 kts | 31° |
| 2026-04-27 15:46 | 34.42652 | 135.41311 | 7921 ft | 268 kts | 31° |
| 2026-04-27 15:47 | 34.44155 | 135.42700 | 7627 ft | 278 kts | 47° |
| 2026-04-27 15:47 | 34.45198 | 135.44701 | 7392 ft | 279 kts | 59° |
| 2026-04-27 15:47 | 34.46124 | 135.46771 | 7087 ft | 279 kts | 59° |
| 2026-04-27 15:47 | 34.47057 | 135.48843 | 6808 ft | 279 kts | 59° |
| 2026-04-27 15:48 | 34.47994 | 135.50908 | 6530 ft | 279 kts | 59° |
| 2026-04-27 15:48 | 34.48920 | 135.52939 | 6272 ft | 278 kts | 59° |
| 2026-04-27 15:48 | 34.49860 | 135.54991 | 5980 ft | 278 kts | 59° |
| 2026-04-27 15:49 | 34.51690 | 135.58982 | 5620 ft | 259 kts | 58° |
| 2026-04-27 15:49 | 34.52531 | 135.60817 | 5548 ft | 242 kts | 58° |
| 2026-04-27 15:49 | 34.53332 | 135.62563 | 5435 ft | 226 kts | 58° |
| 2026-04-27 15:49 | 34.54071 | 135.64137 | 5321 ft | 209 kts | 52° |
| 2026-04-27 15:50 | 34.55128 | 135.65154 | 5159 ft | 185 kts | 13° |
| 2026-04-27 15:50 | 34.56333 | 135.65436 | 5073 ft | 176 kts | 359° |
| 2026-04-27 15:50 | 34.57576 | 135.65453 | 4972 ft | 182 kts | 356° |
| 2026-04-27 15:50 | 34.58848 | 135.65447 | 4809 ft | 182 kts | 356° |
| 2026-04-27 15:51 | 34.60101 | 135.65328 | 4604 ft | 178 kts | 338° |
| 2026-04-27 15:51 | 34.61110 | 135.64527 | 4439 ft | 175 kts | 320° |
| 2026-04-27 15:51 | 34.62031 | 135.63571 | 4227 ft | 175 kts | 315° |
| 2026-04-27 15:51 | 34.62905 | 135.62539 | 3970 ft | 174 kts | 313° |
| 2026-04-27 15:52 | 34.63758 | 135.61506 | 3726 ft | 172 kts | 313° |
| 2026-04-27 15:52 | 34.64601 | 135.60479 | 3521 ft | 171 kts | 313° |
| 2026-04-27 15:52 | 34.65449 | 135.59450 | 3295 ft | 172 kts | 313° |
| 2026-04-27 15:52 | 34.66299 | 135.58419 | 3061 ft | 173 kts | 313° |
| 2026-04-27 15:53 | 34.67151 | 135.57386 | 2833 ft | 174 kts | 313° |
| 2026-04-27 15:53 | 34.68017 | 135.56335 | 2592 ft | 177 kts | 313° |
| 2026-04-27 15:53 | 34.68865 | 135.55309 | 2407 ft | 164 kts | 313° |
| 2026-04-27 15:53 | 34.69652 | 135.54355 | 2136 ft | 154 kts | 314° |
| 2026-04-27 15:54 | 34.70389 | 135.53460 | 1951 ft | 148 kts | 313° |
| 2026-04-27 15:54 | 34.71110 | 135.52585 | 1752 ft | 148 kts | 314° |
| 2026-04-27 15:54 | 34.71847 | 135.51691 | 1570 ft | 150 kts | 314° |
| 2026-04-27 15:54 | 34.72583 | 135.50801 | 1366 ft | 148 kts | 314° |
| 2026-04-27 15:55 | 34.73307 | 135.49921 | 1162 ft | 147 kts | 314° |
| 2026-04-27 15:55 | 34.74038 | 135.49036 | 980 ft | 148 kts | 314° |
| 2026-04-27 15:55 | 34.74758 | 135.48164 | 787 ft | 143 kts | 315° |
| 2026-04-27 15:55 | 34.75450 | 135.47318 | 563 ft | 140 kts | 314° |
| 2026-04-27 15:56 | 34.76135 | 135.46485 | 406 ft | 138 kts | 315° |
| 2026-04-27 15:56 | 34.76812 | 135.45659 | 214 ft | 139 kts | 315° |
| 2026-04-27 15:56 | 34.77490 | 135.44846 | 52 ft | 130 kts | 315° |
| 2026-04-27 15:56 | 34.78060 | 135.44164 | 52 ft | 95 kts | 315° |
| 2026-04-27 15:57 | 34.78423 | 135.43725 | 49 ft | 53 kts | 315° |
| 2026-04-27 15:57 | 34.78703 | 135.43500 | 50 ft | 26 kts | 337° |
| 2026-04-27 15:57 | 34.78821 | 135.43438 | 48 ft | 2 kts | 340° |
| 2026-04-27 15:59 | 34.78823 | 135.43437 | 49 ft | 1 kts | 340° |
| 2026-04-27 15:59 | 34.78838 | 135.43431 | 48 ft | 4 kts | 341° |
| 2026-04-27 15:59 | 34.78870 | 135.43424 | 49 ft | 6 kts | 354° |
| 2026-04-27 15:59 | 34.78916 | 135.43425 | 50 ft | 8 kts | 2° |
| 2026-04-27 16:00 | 34.78971 | 135.43436 | 47 ft | 8 kts | 20° |
| 2026-04-27 16:00 | 34.79022 | 135.43466 | 52 ft | 8 kts | 32° |
| 2026-04-27 16:00 | 34.79061 | 135.43526 | 50 ft | 11 kts | 68° |
| 2026-04-27 16:00 | 34.79066 | 135.43547 | 50 ft | 0 kts | 83° |
| 2026-04-27 16:03 | 34.79066 | 135.43549 | 50 ft | 1 kts | 83° |
| 2026-04-27 16:03 | 34.79067 | 135.43575 | 50 ft | 5 kts | 91° |
| 2026-04-27 16:03 | 34.79063 | 135.43622 | 49 ft | 7 kts | 97° |
| 2026-04-27 16:04 | 34.79058 | 135.43687 | 49 ft | 9 kts | 95° |
| 2026-04-27 16:04 | 34.79067 | 135.43762 | 47 ft | 10 kts | 52° |
| 2026-04-27 16:04 | 34.79097 | 135.43843 | 49 ft | 11 kts | 66° |
| 2026-04-27 16:04 | 34.79124 | 135.43921 | 49 ft | 3 kts | 66° |